sensor_id;sensor_type;location;lat;lon;timestamp;pressure;altitude;pressure_sealevel;temperature;humidity
25722;BME280;13578;53.450;15.496;2023-07-02T00:00:57;98194.72;;;16.29;100.00
25722;BME280;13578;53.450;15.496;2023-07-02T00:03:58;98190.44;;;16.27;100.00
25722;BME280;13578;53.450;15.496;2023-07-02T00:06:58;98181.94;;;16.28;100.00
25722;BME280;13578;53.450;15.496;2023-07-02T00:09:59;98183.41;;;16.24;100.00
25722;BME280;13578;53.450;15.496;2023-07-02T00:12:59;98178.53;;;16.26;100.00
25722;BME280;13578;53.450;15.496;2023-07-02T00:16:00;98179.16;;;16.28;100.00
25722;BME280;13578;53.450;15.496;2023-07-02T00:19:01;98168.72;;;16.30;100.00
25722;BME280;13578;53.450;15.496;2023-07-02T00:22:01;98168.94;;;16.29;100.00
25722;BME280;13578;53.450;15.496;2023-07-02T00:25:03;98175.53;;;16.34;100.00
25722;BME280;13578;53.450;15.496;2023-07-02T00:28:03;98179.13;;;16.35;100.00
25722;BME280;13578;53.450;15.496;2023-07-02T00:31:04;98173.41;;;16.37;100.00
25722;BME280;13578;53.450;15.496;2023-07-02T00:34:05;98181.06;;;16.34;100.00
25722;BME280;13578;53.450;15.496;2023-07-02T00:37:06;98171.72;;;16.35;100.00
25722;BME280;13578;53.450;15.496;2023-07-02T00:40:07;98168.72;;;16.37;100.00
25722;BME280;13578;53.450;15.496;2023-07-02T00:43:07;98165.31;;;16.35;100.00
25722;BME280;13578;53.450;15.496;2023-07-02T00:46:17;98168.06;;;16.35;100.00
25722;BME280;13578;53.450;15.496;2023-07-02T00:49:20;98164.88;;;16.38;100.00
25722;BME280;13578;53.450;15.496;2023-07-02T00:52:21;98159.34;;;16.38;100.00
25722;BME280;13578;53.450;15.496;2023-07-02T00:55:24;98158.47;;;16.38;100.00
25722;BME280;13578;53.450;15.496;2023-07-02T00:58:25;98153.81;;;16.38;100.00
25722;BME280;13578;53.450;15.496;2023-07-02T01:01:27;98152.53;;;16.41;100.00
25722;BME280;13578;53.450;15.496;2023-07-02T01:04:28;98148.69;;;16.42;100.00
25722;BME280;13578;53.450;15.496;2023-07-02T01:07:29;98150.41;;;16.43;100.00
25722;BME280;13578;53.450;15.496;2023-07-02T01:10:30;98150.16;;;16.44;100.00
25722;BME280;13578;53.450;15.496;2023-07-02T01:13:31;98141.44;;;16.41;100.00
25722;BME280;13578;53.450;15.496;2023-07-02T01:16:32;98136.75;;;16.41;100.00
25722;BME280;13578;53.450;15.496;2023-07-02T01:19:51;98140.81;;;16.45;100.00
25722;BME280;13578;53.450;15.496;2023-07-02T01:22:53;98136.56;;;16.43;100.00
25722;BME280;13578;53.450;15.496;2023-07-02T01:25:53;98128.69;;;16.40;100.00
25722;BME280;13578;53.450;15.496;2023-07-02T01:28:54;98133.78;;;16.43;100.00
25722;BME280;13578;53.450;15.496;2023-07-02T01:31:55;98137.41;;;16.43;100.00
25722;BME280;13578;53.450;15.496;2023-07-02T01:34:56;98135.69;;;16.42;100.00
25722;BME280;13578;53.450;15.496;2023-07-02T01:37:56;98134.41;;;16.45;100.00
25722;BME280;13578;53.450;15.496;2023-07-02T01:40:57;98123.97;;;16.47;100.00
25722;BME280;13578;53.450;15.496;2023-07-02T01:43:58;98127.81;;;16.46;100.00
25722;BME280;13578;53.450;15.496;2023-07-02T01:46:58;98131.63;;;16.45;100.00
25722;BME280;13578;53.450;15.496;2023-07-02T01:49:59;98125.06;;;16.39;100.00
25722;BME280;13578;53.450;15.496;2023-07-02T01:53:00;98135.69;;;16.42;100.00
25722;BME280;13578;53.450;15.496;2023-07-02T01:56:01;98134.44;;;16.31;100.00
25722;BME280;13578;53.450;15.496;2023-07-02T01:59:01;98143.59;;;16.25;100.00
25722;BME280;13578;53.450;15.496;2023-07-02T02:02:02;98149.59;;;16.15;100.00
25722;BME280;13578;53.450;15.496;2023-07-02T02:05:03;98144.06;;;16.15;100.00
25722;BME280;13578;53.450;15.496;2023-07-02T02:08:03;98141.94;;;16.11;100.00
25722;BME280;13578;53.450;15.496;2023-07-02T02:11:04;98147.69;;;16.02;100.00
25722;BME280;13578;53.450;15.496;2023-07-02T02:14:05;98166.63;;;15.92;100.00
25722;BME280;13578;53.450;15.496;2023-07-02T02:17:06;98162.38;;;15.90;100.00
25722;BME280;13578;53.450;15.496;2023-07-02T02:20:07;98168.09;;;15.88;100.00
25722;BME280;13578;53.450;15.496;2023-07-02T02:23:08;98163.44;;;15.88;100.00
25722;BME280;13578;53.450;15.496;2023-07-02T02:26:09;98165.34;;;15.88;100.00
25722;BME280;13578;53.450;15.496;2023-07-02T02:29:10;98164.06;;;15.91;100.00
25722;BME280;13578;53.450;15.496;2023-07-02T02:32:10;98163.22;;;15.90;100.00
25722;BME280;13578;53.450;15.496;2023-07-02T02:35:11;98163.84;;;15.85;100.00
25722;BME280;13578;53.450;15.496;2023-07-02T02:38:12;98163.03;;;15.85;100.00
25722;BME280;13578;53.450;15.496;2023-07-02T02:41:14;98170.66;;;15.83;100.00
25722;BME280;13578;53.450;15.496;2023-07-02T02:44:15;98178.28;;;15.81;100.00
25722;BME280;13578;53.450;15.496;2023-07-02T02:47:16;98182.09;;;15.80;100.00
25722;BME280;13578;53.450;15.496;2023-07-02T02:50:16;98185.09;;;15.78;100.00
25722;BME280;13578;53.450;15.496;2023-07-02T02:53:17;98188.69;;;15.79;100.00
25722;BME280;13578;53.450;15.496;2023-07-02T02:56:18;98184.25;;;15.78;100.00
25722;BME280;13578;53.450;15.496;2023-07-02T02:59:19;98184.03;;;15.79;100.00
25722;BME280;13578;53.450;15.496;2023-07-02T03:02:19;98187.63;;;15.80;100.00
25722;BME280;13578;53.450;15.496;2023-07-02T03:05:20;98185.94;;;15.79;100.00
25722;BME280;13578;53.450;15.496;2023-07-02T03:08:21;98184.03;;;15.79;100.00
25722;BME280;13578;53.450;15.496;2023-07-02T03:11:21;98181.25;;;15.72;100.00
25722;BME280;13578;53.450;15.496;2023-07-02T03:14:22;98182.09;;;15.66;100.00
25722;BME280;13578;53.450;15.496;2023-07-02T03:17:23;98177.00;;;15.63;100.00
25722;BME280;13578;53.450;15.496;2023-07-02T03:20:24;98189.13;;;15.62;100.00
25722;BME280;13578;53.450;15.496;2023-07-02T03:23:25;98196.78;;;15.60;100.00
25722;BME280;13578;53.450;15.496;2023-07-02T03:26:25;98191.66;;;15.57;100.00
25722;BME280;13578;53.450;15.496;2023-07-02T03:29:26;98198.28;;;15.56;100.00
25722;BME280;13578;53.450;15.496;2023-07-02T03:32:27;98205.25;;;15.52;100.00
25722;BME280;13578;53.450;15.496;2023-07-02T03:35:27;98209.50;;;15.48;100.00
25722;BME280;13578;53.450;15.496;2023-07-02T03:38:28;98211.63;;;15.46;100.00
25722;BME280;13578;53.450;15.496;2023-07-02T03:41:29;98217.78;;;15.41;100.00
25722;BME280;13578;53.450;15.496;2023-07-02T03:44:29;98224.34;;;15.33;100.00
25722;BME280;13578;53.450;15.496;2023-07-02T03:47:30;98243.44;;;15.28;100.00
25722;BME280;13578;53.450;15.496;2023-07-02T03:50:31;98241.34;;;15.23;100.00
25722;BME280;13578;53.450;15.496;2023-07-02T03:53:31;98251.13;;;15.26;100.00
25722;BME280;13578;53.450;15.496;2023-07-02T03:56:32;98250.25;;;15.25;100.00
25722;BME280;13578;53.450;15.496;2023-07-02T03:59:34;98244.28;;;15.22;100.00
25722;BME280;13578;53.450;15.496;2023-07-02T04:02:35;98253.44;;;15.22;100.00
25722;BME280;13578;53.450;15.496;2023-07-02T04:05:35;98257.25;;;15.28;100.00
25722;BME280;13578;53.450;15.496;2023-07-02T04:08:36;98257.91;;;15.30;100.00
25722;BME280;13578;53.450;15.496;2023-07-02T04:11:37;98261.31;;;15.25;100.00
25722;BME280;13578;53.450;15.496;2023-07-02T04:14:37;98267.47;;;15.28;100.00
25722;BME280;13578;53.450;15.496;2023-07-02T04:17:38;98259.59;;;15.18;100.00
25722;BME280;13578;53.450;15.496;2023-07-02T04:20:38;98271.91;;;15.22;100.00
25722;BME280;13578;53.450;15.496;2023-07-02T04:23:39;98292.72;;;15.18;100.00
25722;BME280;13578;53.450;15.496;2023-07-02T04:26:40;98290.81;;;15.18;100.00
25722;BME280;13578;53.450;15.496;2023-07-02T04:29:44;98290.59;;;15.13;100.00
25722;BME280;13578;53.450;15.496;2023-07-02T04:32:44;98301.22;;;15.16;100.00
25722;BME280;13578;53.450;15.496;2023-07-02T04:35:45;98306.28;;;15.13;100.00
25722;BME280;13578;53.450;15.496;2023-07-02T04:38:45;98311.81;;;15.13;100.00
25722;BME280;13578;53.450;15.496;2023-07-02T04:41:46;98322.19;;;15.46;100.00
25722;BME280;13578;53.450;15.496;2023-07-02T04:44:49;98342.06;;;15.76;100.00
25722;BME280;13578;53.450;15.496;2023-07-02T04:47:50;98360.59;;;15.82;100.00
25722;BME280;13578;53.450;15.496;2023-07-02T04:50:50;98376.34;;;15.82;100.00
25722;BME280;13578;53.450;15.496;2023-07-02T04:53:51;98381.66;;;15.77;100.00
25722;BME280;13578;53.450;15.496;2023-07-02T04:56:52;98383.94;;;15.60;100.00
25722;BME280;13578;53.450;15.496;2023-07-02T04:59:52;98377.53;;;15.59;100.00
25722;BME280;13578;53.450;15.496;2023-07-02T05:02:55;98382.19;;;15.52;100.00
25722;BME280;13578;53.450;15.496;2023-07-02T05:05:55;98379.84;;;15.49;100.00
25722;BME280;13578;53.450;15.496;2023-07-02T05:08:56;98399.59;;;15.46;100.00
25722;BME280;13578;53.450;15.496;2023-07-02T05:11:57;98417.47;;;15.50;100.00
25722;BME280;13578;53.450;15.496;2023-07-02T05:14:58;98418.50;;;15.42;100.00
25722;BME280;13578;53.450;15.496;2023-07-02T05:17:59;98427.09;;;15.25;100.00
25722;BME280;13578;53.450;15.496;2023-07-02T05:20:59;98428.34;;;15.23;100.00
25722;BME280;13578;53.450;15.496;2023-07-02T05:24:00;98443.88;;;15.24;100.00
25722;BME280;13578;53.450;15.496;2023-07-02T05:27:01;98443.75;;;15.32;100.00
25722;BME280;13578;53.450;15.496;2023-07-02T05:30:01;98448.81;;;15.29;100.00
25722;BME280;13578;53.450;15.496;2023-07-02T05:33:03;98445.63;;;15.32;100.00
25722;BME280;13578;53.450;15.496;2023-07-02T05:36:03;98443.53;;;15.34;100.00
25722;BME280;13578;53.450;15.496;2023-07-02T05:39:04;98459.50;;;15.38;100.00
25722;BME280;13578;53.450;15.496;2023-07-02T05:42:04;98455.53;;;15.48;100.00
25722;BME280;13578;53.450;15.496;2023-07-02T05:45:05;98462.59;;;15.57;100.00
25722;BME280;13578;53.450;15.496;2023-07-02T05:48:06;98467.72;;;15.60;100.00
25722;BME280;13578;53.450;15.496;2023-07-02T05:51:08;98478.53;;;15.55;100.00
25722;BME280;13578;53.450;15.496;2023-07-02T05:54:08;98483.41;;;15.53;100.00
25722;BME280;13578;53.450;15.496;2023-07-02T05:57:09;98482.59;;;15.59;100.00
25722;BME280;13578;53.450;15.496;2023-07-02T06:00:10;98493.06;;;15.64;100.00
25722;BME280;13578;53.450;15.496;2023-07-02T06:03:12;98489.97;;;15.80;100.00
25722;BME280;13578;53.450;15.496;2023-07-02T06:06:15;98492.59;;;15.88;100.00
25722;BME280;13578;53.450;15.496;2023-07-02T06:09:16;98496.47;;;16.01;100.00
25722;BME280;13578;53.450;15.496;2023-07-02T06:12:16;98499.34;;;16.21;100.00
25722;BME280;13578;53.450;15.496;2023-07-02T06:15:17;98511.03;;;16.23;100.00
25722;BME280;13578;53.450;15.496;2023-07-02T06:18:18;98515.13;;;16.27;100.00
25722;BME280;13578;53.450;15.496;2023-07-02T06:21:18;98520.94;;;16.46;100.00
25722;BME280;13578;53.450;15.496;2023-07-02T06:24:20;98532.66;;;16.48;100.00
25722;BME280;13578;53.450;15.496;2023-07-02T06:27:21;98537.94;;;16.98;100.00
25722;BME280;13578;53.450;15.496;2023-07-02T06:30:22;98552.59;;;16.92;100.00
25722;BME280;13578;53.450;15.496;2023-07-02T06:33:22;98550.47;;;16.87;100.00
25722;BME280;13578;53.450;15.496;2023-07-02T06:36:23;98547.22;;;16.77;100.00
25722;BME280;13578;53.450;15.496;2023-07-02T06:39:23;98562.13;;;16.76;100.00
25722;BME280;13578;53.450;15.496;2023-07-02T06:42:24;98552.75;;;16.70;100.00
25722;BME280;13578;53.450;15.496;2023-07-02T06:45:25;98551.63;;;16.58;100.00
25722;BME280;13578;53.450;15.496;2023-07-02T06:48:25;98558.53;;;16.82;100.00
25722;BME280;13578;53.450;15.496;2023-07-02T06:51:26;98557.56;;;17.10;100.00
25722;BME280;13578;53.450;15.496;2023-07-02T06:54:27;98574.75;;;16.85;100.00
25722;BME280;13578;53.450;15.496;2023-07-02T06:57:28;98574.88;;;16.63;100.00
25722;BME280;13578;53.450;15.496;2023-07-02T07:00:31;98572.50;;;16.54;100.00
25722;BME280;13578;53.450;15.496;2023-07-02T07:03:32;98569.13;;;16.58;100.00
25722;BME280;13578;53.450;15.496;2023-07-02T07:06:33;98568.72;;;16.75;100.00
25722;BME280;13578;53.450;15.496;2023-07-02T07:09:34;98567.50;;;16.91;100.00
25722;BME280;13578;53.450;15.496;2023-07-02T07:12:35;98559.03;;;16.99;100.00
25722;BME280;13578;53.450;15.496;2023-07-02T07:15:36;98557.13;;;17.26;100.00
25722;BME280;13578;53.450;15.496;2023-07-02T07:18:37;98550.97;;;17.51;100.00
25722;BME280;13578;53.450;15.496;2023-07-02T07:21:37;98561.59;;;17.81;100.00
25722;BME280;13578;53.450;15.496;2023-07-02T07:24:41;98577.38;;;17.87;100.00
25722;BME280;13578;53.450;15.496;2023-07-02T07:27:42;98587.66;;;17.80;100.00
25722;BME280;13578;53.450;15.496;2023-07-02T07:30:42;98580.81;;;17.69;100.00
25722;BME280;13578;53.450;15.496;2023-07-02T07:33:45;98577.84;;;17.64;100.00
25722;BME280;13578;53.450;15.496;2023-07-02T07:36:49;98569.50;;;17.71;100.00
25722;BME280;13578;53.450;15.496;2023-07-02T07:39:52;98570.56;;;17.76;100.00
25722;BME280;13578;53.450;15.496;2023-07-02T07:42:53;98571.22;;;17.58;100.00
25722;BME280;13578;53.450;15.496;2023-07-02T07:45:54;98561.19;;;17.71;100.00
25722;BME280;13578;53.450;15.496;2023-07-02T07:48:55;98578.91;;;17.83;100.00
25722;BME280;13578;53.450;15.496;2023-07-02T07:51:56;98564.16;;;18.03;100.00
25722;BME280;13578;53.450;15.496;2023-07-02T07:54:56;98572.69;;;18.15;100.00
25722;BME280;13578;53.450;15.496;2023-07-02T07:57:57;98583.69;;;18.48;100.00
25722;BME280;13578;53.450;15.496;2023-07-02T08:00:58;98593.09;;;18.40;100.00
25722;BME280;13578;53.450;15.496;2023-07-02T08:03:58;98584.53;;;18.49;100.00
25722;BME280;13578;53.450;15.496;2023-07-02T08:06:59;98603.41;;;18.79;100.00
25722;BME280;13578;53.450;15.496;2023-07-02T08:10:00;98592.88;;;18.87;100.00
25722;BME280;13578;53.450;15.496;2023-07-02T08:13:00;98594.84;;;19.26;100.00
25722;BME280;13578;53.450;15.496;2023-07-02T08:16:01;98593.25;;;19.36;100.00
25722;BME280;13578;53.450;15.496;2023-07-02T08:19:01;98578.53;;;19.36;100.00
25722;BME280;13578;53.450;15.496;2023-07-02T08:22:02;98587.53;;;19.31;100.00
25722;BME280;13578;53.450;15.496;2023-07-02T08:25:03;98592.47;;;18.84;100.00
25722;BME280;13578;53.450;15.496;2023-07-02T08:28:04;98598.81;;;18.59;100.00
25722;BME280;13578;53.450;15.496;2023-07-02T08:31:05;98595.63;;;18.49;100.00
25722;BME280;13578;53.450;15.496;2023-07-02T08:34:06;98587.94;;;18.51;100.00
25722;BME280;13578;53.450;15.496;2023-07-02T08:37:06;98595.28;;;18.25;100.00
25722;BME280;13578;53.450;15.496;2023-07-02T08:40:15;98605.91;;;18.48;100.00
25722;BME280;13578;53.450;15.496;2023-07-02T08:43:17;98591.78;;;18.56;100.00
25722;BME280;13578;53.450;15.496;2023-07-02T08:46:18;98588.19;;;18.88;100.00
25722;BME280;13578;53.450;15.496;2023-07-02T08:49:18;98589.91;;;18.89;100.00
25722;BME280;13578;53.450;15.496;2023-07-02T08:52:19;98607.84;;;19.00;100.00
25722;BME280;13578;53.450;15.496;2023-07-02T08:55:20;98590.69;;;19.03;100.00
25722;BME280;13578;53.450;15.496;2023-07-02T08:58:20;98600.63;;;18.79;100.00
25722;BME280;13578;53.450;15.496;2023-07-02T09:01:22;98612.69;;;18.59;100.00
25722;BME280;13578;53.450;15.496;2023-07-02T09:04:24;98605.09;;;18.93;100.00
25722;BME280;13578;53.450;15.496;2023-07-02T09:07:25;98612.13;;;18.89;100.00
25722;BME280;13578;53.450;15.496;2023-07-02T09:10:30;98605.34;;;18.78;100.00
25722;BME280;13578;53.450;15.496;2023-07-02T09:13:31;98605.84;;;18.55;100.00
25722;BME280;13578;53.450;15.496;2023-07-02T09:16:32;98601.81;;;18.51;100.00
25722;BME280;13578;53.450;15.496;2023-07-02T09:19:36;98598.91;;;18.84;100.00
25722;BME280;13578;53.450;15.496;2023-07-02T09:22:36;98585.59;;;19.00;100.00
25722;BME280;13578;53.450;15.496;2023-07-02T09:25:40;98597.06;;;19.10;100.00
25722;BME280;13578;53.450;15.496;2023-07-02T09:28:41;98596.50;;;18.95;100.00
25722;BME280;13578;53.450;15.496;2023-07-02T09:31:45;98608.03;;;18.98;100.00
25722;BME280;13578;53.450;15.496;2023-07-02T09:34:46;98611.31;;;19.27;100.00
25722;BME280;13578;53.450;15.496;2023-07-02T09:37:48;98610.78;;;19.05;100.00
25722;BME280;13578;53.450;15.496;2023-07-02T09:40:52;98613.06;;;18.76;100.00
25722;BME280;13578;53.450;15.496;2023-07-02T09:43:54;98624.22;;;18.63;100.00
25722;BME280;13578;53.450;15.496;2023-07-02T09:47:07;98631.75;;;18.49;100.00
25722;BME280;13578;53.450;15.496;2023-07-02T09:50:10;98619.25;;;18.78;100.00
25722;BME280;13578;53.450;15.496;2023-07-02T09:53:12;98623.25;;;18.96;100.00
25722;BME280;13578;53.450;15.496;2023-07-02T09:56:12;98616.75;;;19.15;100.00
25722;BME280;13578;53.450;15.496;2023-07-02T09:59:14;98605.38;;;19.49;100.00
25722;BME280;13578;53.450;15.496;2023-07-02T10:02:15;98583.13;;;19.17;100.00
25722;BME280;13578;53.450;15.496;2023-07-02T10:05:28;98579.41;;;18.98;100.00
25722;BME280;13578;53.450;15.496;2023-07-02T10:08:29;98593.47;;;19.42;100.00
25722;BME280;13578;53.450;15.496;2023-07-02T10:11:33;98607.78;;;19.45;100.00
25722;BME280;13578;53.450;15.496;2023-07-02T10:14:45;98618.69;;;19.40;100.00
25722;BME280;13578;53.450;15.496;2023-07-02T10:17:57;98602.19;;;19.13;100.00
25722;BME280;13578;53.450;15.496;2023-07-02T10:20:58;98608.91;;;18.99;100.00
25722;BME280;13578;53.450;15.496;2023-07-02T10:27:12;98621.03;;;19.11;100.00
25722;BME280;13578;53.450;15.496;2023-07-02T10:30:12;98629.19;;;19.06;100.00
25722;BME280;13578;53.450;15.496;2023-07-02T10:33:15;98626.00;;;19.02;100.00
25722;BME280;13578;53.450;15.496;2023-07-02T10:36:23;98636.41;;;19.14;100.00
25722;BME280;13578;53.450;15.496;2023-07-02T10:39:24;98624.53;;;19.00;100.00
25722;BME280;13578;53.450;15.496;2023-07-02T10:42:25;98619.28;;;19.17;100.00
25722;BME280;13578;53.450;15.496;2023-07-02T10:45:35;98619.94;;;19.19;100.00
25722;BME280;13578;53.450;15.496;2023-07-02T10:48:36;98620.16;;;19.43;100.00
25722;BME280;13578;53.450;15.496;2023-07-02T10:51:37;98614.44;;;19.95;100.00
25722;BME280;13578;53.450;15.496;2023-07-02T10:54:46;98619.25;;;19.81;100.00
25722;BME280;13578;53.450;15.496;2023-07-02T10:57:48;98640.84;;;19.53;100.00
25722;BME280;13578;53.450;15.496;2023-07-02T11:00:51;98632.88;;;19.64;100.00
25722;BME280;13578;53.450;15.496;2023-07-02T11:04:03;98624.81;;;19.81;100.00
25722;BME280;13578;53.450;15.496;2023-07-02T11:07:07;98636.47;;;19.96;100.00
25722;BME280;13578;53.450;15.496;2023-07-02T11:10:09;98613.38;;;19.96;100.00
25722;BME280;13578;53.450;15.496;2023-07-02T11:13:17;98607.03;;;20.07;100.00
25722;BME280;13578;53.450;15.496;2023-07-02T11:16:26;98600.25;;;20.22;100.00
25722;BME280;13578;53.450;15.496;2023-07-02T11:19:28;98597.31;;;20.35;100.00
25722;BME280;13578;53.450;15.496;2023-07-02T11:22:33;98588.59;;;20.50;100.00
25722;BME280;13578;53.450;15.496;2023-07-02T11:25:33;98592.56;;;19.73;99.26
25722;BME280;13578;53.450;15.496;2023-07-02T11:28:34;98616.06;;;20.03;100.00
25722;BME280;13578;53.450;15.496;2023-07-02T11:31:35;98612.72;;;20.38;100.00
25722;BME280;13578;53.450;15.496;2023-07-02T11:34:36;98626.72;;;20.31;100.00
25722;BME280;13578;53.450;15.496;2023-07-02T11:37:37;98604.38;;;19.94;100.00
25722;BME280;13578;53.450;15.496;2023-07-02T11:40:37;98632.66;;;19.91;100.00
25722;BME280;13578;53.450;15.496;2023-07-02T11:43:38;98632.91;;;19.89;100.00
25722;BME280;13578;53.450;15.496;2023-07-02T11:46:39;98612.56;;;20.33;100.00
25722;BME280;13578;53.450;15.496;2023-07-02T11:49:39;98591.75;;;20.54;95.32
25722;BME280;13578;53.450;15.496;2023-07-02T11:52:40;98618.06;;;20.95;100.00
25722;BME280;13578;53.450;15.496;2023-07-02T11:55:40;98563.06;;;20.35;82.80
25722;BME280;13578;53.450;15.496;2023-07-02T11:58:42;98603.66;;;20.42;93.21
25722;BME280;13578;53.450;15.496;2023-07-02T12:01:43;98613.88;;;20.86;93.73
25722;BME280;13578;53.450;15.496;2023-07-02T12:04:43;98593.34;;;20.99;85.73
25722;BME280;13578;53.450;15.496;2023-07-02T12:07:44;98616.25;;;21.31;92.91
25722;BME280;13578;53.450;15.496;2023-07-02T12:10:45;98597.31;;;20.91;86.75
25722;BME280;13578;53.450;15.496;2023-07-02T12:13:45;98614.97;;;20.66;88.09
25722;BME280;13578;53.450;15.496;2023-07-02T12:16:46;98621.97;;;20.75;88.89
25722;BME280;13578;53.450;15.496;2023-07-02T12:19:46;98645.31;;;20.93;96.18
25722;BME280;13578;53.450;15.496;2023-07-02T12:22:47;98607.22;;;21.05;86.48
25722;BME280;13578;53.450;15.496;2023-07-02T12:25:47;98617.63;;;20.79;88.96
25722;BME280;13578;53.450;15.496;2023-07-02T12:28:48;98639.16;;;20.91;96.86
25722;BME280;13578;53.450;15.496;2023-07-02T12:31:48;98628.13;;;21.15;91.20
25722;BME280;13578;53.450;15.496;2023-07-02T12:34:49;98603.41;;;21.00;86.47
25722;BME280;13578;53.450;15.496;2023-07-02T12:37:51;98604.34;;;21.24;88.87
25722;BME280;13578;53.450;15.496;2023-07-02T12:40:52;98594.91;;;21.25;81.66
25722;BME280;13578;53.450;15.496;2023-07-02T12:43:52;98598.22;;;21.46;83.58
25722;BME280;13578;53.450;15.496;2023-07-02T12:46:53;98600.41;;;21.32;81.08
25722;BME280;13578;53.450;15.496;2023-07-02T12:49:54;98576.75;;;21.34;76.91
25722;BME280;13578;53.450;15.496;2023-07-02T12:52:55;98563.13;;;21.26;70.81
25722;BME280;13578;53.450;15.496;2023-07-02T12:55:55;98582.06;;;21.36;72.38
25722;BME280;13578;53.450;15.496;2023-07-02T12:58:56;98582.94;;;21.48;72.47
25722;BME280;13578;53.450;15.496;2023-07-02T13:01:56;98612.91;;;21.83;76.73
25722;BME280;13578;53.450;15.496;2023-07-02T13:04:57;98588.53;;;21.36;70.20
25722;BME280;13578;53.450;15.496;2023-07-02T13:07:58;98600.13;;;21.64;74.55
25722;BME280;13578;53.450;15.496;2023-07-02T13:10:58;98618.69;;;21.70;79.64
25722;BME280;13578;53.450;15.496;2023-07-02T13:13:59;98596.03;;;21.90;74.55
25722;BME280;13578;53.450;15.496;2023-07-02T13:16:59;98608.03;;;21.67;74.68
25722;BME280;13578;53.450;15.496;2023-07-02T13:20:00;98591.38;;;21.60;71.01
25722;BME280;13578;53.450;15.496;2023-07-02T13:23:03;98609.00;;;21.72;77.73
25722;BME280;13578;53.450;15.496;2023-07-02T13:26:04;98569.19;;;21.65;67.70
25722;BME280;13578;53.450;15.496;2023-07-02T13:29:04;98592.75;;;21.81;69.94
25722;BME280;13578;53.450;15.496;2023-07-02T13:32:06;98583.03;;;21.72;66.51
25722;BME280;13578;53.450;15.496;2023-07-02T13:35:07;98601.69;;;21.60;70.71
25722;BME280;13578;53.450;15.496;2023-07-02T13:38:07;98618.34;;;21.78;76.87
25722;BME280;13578;53.450;15.496;2023-07-02T13:41:08;98615.22;;;21.98;76.38
25722;BME280;13578;53.450;15.496;2023-07-02T13:44:08;98628.00;;;22.06;78.26
25722;BME280;13578;53.450;15.496;2023-07-02T13:47:09;98631.72;;;21.76;77.83
25722;BME280;13578;53.450;15.496;2023-07-02T13:50:11;98636.16;;;21.35;79.11
25722;BME280;13578;53.450;15.496;2023-07-02T13:53:12;98634.47;;;21.03;77.05
25722;BME280;13578;53.450;15.496;2023-07-02T13:56:12;98632.00;;;20.58;77.03
25722;BME280;13578;53.450;15.496;2023-07-02T13:59:14;98648.38;;;20.29;80.39
25722;BME280;13578;53.450;15.496;2023-07-02T14:02:15;98660.72;;;20.14;84.20
25722;BME280;13578;53.450;15.496;2023-07-02T14:05:16;98678.41;;;20.02;89.13
25722;BME280;13578;53.450;15.496;2023-07-02T14:08:17;98665.00;;;19.92;85.99
25722;BME280;13578;53.450;15.496;2023-07-02T14:11:19;98689.53;;;20.27;92.69
25722;BME280;13578;53.450;15.496;2023-07-02T14:14:19;98690.31;;;20.97;93.11
25722;BME280;13578;53.450;15.496;2023-07-02T14:17:20;98687.69;;;21.51;87.87
25722;BME280;13578;53.450;15.496;2023-07-02T14:20:20;98646.34;;;21.60;77.77
25722;BME280;13578;53.450;15.496;2023-07-02T14:23:21;98662.28;;;21.71;81.06
25722;BME280;13578;53.450;15.496;2023-07-02T14:26:22;98668.78;;;21.95;82.69
25722;BME280;13578;53.450;15.496;2023-07-02T14:29:22;98647.38;;;21.89;76.08
25722;BME280;13578;53.450;15.496;2023-07-02T14:32:23;98645.44;;;21.78;74.64
25722;BME280;13578;53.450;15.496;2023-07-02T14:35:24;98661.84;;;21.25;78.99
25722;BME280;13578;53.450;15.496;2023-07-02T14:38:28;98662.22;;;20.79;75.54
25722;BME280;13578;53.450;15.496;2023-07-02T14:41:29;98645.94;;;20.58;72.80
25722;BME280;13578;53.450;15.496;2023-07-02T14:44:35;98640.28;;;20.46;70.44
25722;BME280;13578;53.450;15.496;2023-07-02T14:47:36;98645.69;;;20.41;71.05
25722;BME280;13578;53.450;15.496;2023-07-02T14:50:43;98655.81;;;20.35;71.32
25722;BME280;13578;53.450;15.496;2023-07-02T14:53:43;98644.53;;;20.30;69.87
25722;BME280;13578;53.450;15.496;2023-07-02T14:56:44;98661.63;;;20.34;70.95
25722;BME280;13578;53.450;15.496;2023-07-02T14:59:47;98670.75;;;20.41;72.32
25722;BME280;13578;53.450;15.496;2023-07-02T15:02:50;98654.63;;;20.68;70.02
25722;BME280;13578;53.450;15.496;2023-07-02T15:05:51;98682.00;;;20.71;73.01
25722;BME280;13578;53.450;15.496;2023-07-02T15:08:52;98658.78;;;21.15;67.09
25722;BME280;13578;53.450;15.496;2023-07-02T15:11:52;98658.34;;;20.99;66.55
25722;BME280;13578;53.450;15.496;2023-07-02T15:14:53;98679.53;;;20.63;69.19
25722;BME280;13578;53.450;15.496;2023-07-02T15:17:53;98686.78;;;20.45;70.52
25722;BME280;13578;53.450;15.496;2023-07-02T15:20:54;98672.44;;;20.23;67.67
25722;BME280;13578;53.450;15.496;2023-07-02T15:23:56;98682.63;;;20.11;68.59
25722;BME280;13578;53.450;15.496;2023-07-02T15:26:57;98685.69;;;20.03;69.49
25722;BME280;13578;53.450;15.496;2023-07-02T15:29:57;98703.53;;;19.95;73.50
25722;BME280;13578;53.450;15.496;2023-07-02T15:32:58;98719.19;;;19.89;78.13
25722;BME280;13578;53.450;15.496;2023-07-02T15:36:03;98724.59;;;19.84;79.28
25722;BME280;13578;53.450;15.496;2023-07-02T15:39:04;98708.78;;;19.78;75.76
25722;BME280;13578;53.450;15.496;2023-07-02T15:42:06;98715.19;;;19.78;75.62